createdAt,value
2023-01-28T00:00:26.618Z,-0.77
2023-01-28T00:02:59.085Z,-0.79
2023-01-28T00:05:31.594Z,-0.80
2023-01-28T00:08:04.293Z,-0.82
2023-01-28T00:10:40.194Z,-0.85
2023-01-28T00:13:15.018Z,-0.88
2023-01-28T00:15:47.585Z,-0.87
2023-01-28T00:18:21.081Z,-0.89
2023-01-28T00:21:04.375Z,-0.89
2023-01-28T00:23:38.767Z,-0.88
2023-01-28T00:26:16.178Z,-0.91
2023-01-28T00:28:48.950Z,-0.92
2023-01-28T00:31:23.913Z,-0.91
2023-01-28T00:33:57.459Z,-0.89
2023-01-28T00:36:29.981Z,-0.86
2023-01-28T00:39:02.407Z,-0.82
2023-01-28T00:41:34.868Z,-0.81
2023-01-28T00:44:10.249Z,-0.83
2023-01-28T00:46:42.741Z,-0.83
2023-01-28T00:49:15.179Z,-0.81
2023-01-28T00:51:49.071Z,-0.79
2023-01-28T00:54:22.075Z,-0.75
2023-01-28T00:56:54.525Z,-0.74
2023-01-28T00:59:28.295Z,-0.74
2023-01-28T01:02:02.450Z,-0.74
2023-01-28T01:04:35.412Z,-0.71
2023-01-28T01:07:08.173Z,-0.70
2023-01-28T01:09:41.217Z,-0.74
2023-01-28T01:12:13.790Z,-0.75
2023-01-28T01:14:47.393Z,-0.81
2023-01-28T01:17:22.509Z,-0.82
2023-01-28T01:19:55.241Z,-0.82
2023-01-28T01:22:28.164Z,-0.85
2023-01-28T01:25:00.488Z,-0.93
2023-01-28T01:27:33.802Z,-0.94
2023-01-28T01:30:08.718Z,-0.97
2023-01-28T01:32:41.782Z,-0.96
2023-01-28T01:35:14.878Z,-0.94
2023-01-28T01:37:48.100Z,-0.93
2023-01-28T01:40:20.549Z,-0.94
2023-01-28T01:42:52.994Z,-0.89
2023-01-28T01:45:25.303Z,-0.88
2023-01-28T01:48:14.027Z,-0.89
2023-01-28T01:50:59.005Z,-0.92
2023-01-28T01:53:31.561Z,-0.95
2023-01-28T01:56:06.198Z,-0.98
2023-01-28T01:58:40.651Z,-0.98
2023-01-28T02:01:13.259Z,-0.99
2023-01-28T02:04:08.237Z,-0.99
2023-01-28T02:06:40.719Z,-1.03
2023-01-28T02:09:35.533Z,-1.05
2023-01-28T02:12:15.227Z,-1.02
2023-01-28T02:14:54.532Z,-1.02
2023-01-28T02:17:27.191Z,-1.01
2023-01-28T02:20:09.650Z,-1.02
2023-01-28T02:22:53.109Z,-1.01
2023-01-28T02:26:20.470Z,-0.97
2023-01-28T02:29:23.974Z,-0.97
2023-01-28T02:32:07.256Z,-0.99
2023-01-28T02:34:51.520Z,-0.98
2023-01-28T02:37:31.230Z,-0.98
2023-01-28T02:40:13.603Z,-0.99
2023-01-28T02:42:46.189Z,-1.04
2023-01-28T02:45:50.057Z,-1.07
2023-01-28T02:48:24.005Z,-1.05
2023-01-28T02:51:01.213Z,-1.02
2023-01-28T02:53:43.734Z,-1.02
2023-01-28T02:56:38.805Z,-1.01
2023-01-28T02:59:37.493Z,-1.00
2023-01-28T03:02:34.072Z,-1.01
2023-01-28T03:05:21.079Z,-0.98
2023-01-28T03:07:53.687Z,-0.95
2023-01-28T03:10:27.501Z,-0.93
2023-01-28T03:13:18.036Z,-0.95
2023-01-28T03:16:08.834Z,-0.92
2023-01-28T03:19:09.132Z,-0.90
2023-01-28T03:22:02.227Z,-0.88
2023-01-28T03:24:57.006Z,-0.88
2023-01-28T03:28:11.599Z,-0.90
2023-01-28T03:31:13.355Z,-0.93
2023-01-28T03:34:05.613Z,-0.97
2023-01-28T03:36:53.947Z,-0.98
2023-01-28T03:39:31.624Z,-1.02
2023-01-28T03:42:12.071Z,-1.03
2023-01-28T03:45:03.384Z,-1.02
2023-01-28T03:47:35.918Z,-1.00
2023-01-28T03:50:11.322Z,-0.99
2023-01-28T03:52:45.444Z,-1.00
2023-01-28T03:55:31.775Z,-1.06
2023-01-28T03:58:05.912Z,-1.06
2023-01-28T04:00:41.147Z,-1.06
2023-01-28T04:03:17.533Z,-1.03
2023-01-28T04:06:03.676Z,-1.00
2023-01-28T04:08:54.777Z,-0.98
2023-01-28T04:11:31.862Z,-0.96
2023-01-28T04:14:06.489Z,-0.94
2023-01-28T04:16:43.794Z,-0.96
2023-01-28T04:19:17.161Z,-0.96
2023-01-28T04:21:50.118Z,-0.95
2023-01-28T04:24:23.932Z,-0.92
2023-01-28T04:26:56.682Z,-0.89
2023-01-28T04:29:30.131Z,-0.84
2023-01-28T04:32:04.295Z,-0.79
2023-01-28T04:34:41.298Z,-0.77
2023-01-28T04:37:15.772Z,-0.75
2023-01-28T04:39:49.851Z,-0.76
2023-01-28T04:42:24.222Z,-0.77
2023-01-28T04:44:58.341Z,-0.76
2023-01-28T04:47:47.859Z,-0.75
2023-01-28T04:50:34.768Z,-0.74
2023-01-28T04:53:11.918Z,-0.75
2023-01-28T04:55:54.803Z,-0.74
2023-01-28T04:58:27.768Z,-0.75
2023-01-28T05:01:02.385Z,-0.73
2023-01-28T05:03:36.544Z,-0.71
2023-01-28T05:06:11.007Z,-0.72
2023-01-28T05:08:50.788Z,-0.67
2023-01-28T05:11:24.672Z,-0.67
2023-01-28T05:13:59.242Z,-0.67
2023-01-28T05:16:34.314Z,-0.68
2023-01-28T05:19:07.765Z,-0.73
2023-01-28T05:21:48.115Z,-0.76
2023-01-28T05:24:21.780Z,-0.77
2023-01-28T05:26:54.276Z,-0.75
2023-01-28T05:29:26.592Z,-0.77
2023-01-28T05:31:59.047Z,-0.77
2023-01-28T05:34:31.390Z,-0.80
2023-01-28T05:37:05.908Z,-0.78
2023-01-28T05:39:40.411Z,-0.79
2023-01-28T05:42:15.451Z,-0.85
2023-01-28T05:44:49.481Z,-0.84
2023-01-28T05:47:23.676Z,-0.81
2023-01-28T05:49:57.306Z,-0.79
2023-01-28T05:52:47.188Z,-0.83
2023-01-28T05:55:24.965Z,-0.89
2023-01-28T05:57:57.557Z,-0.87
2023-01-28T06:00:31.873Z,-0.80
2023-01-28T06:03:04.951Z,-0.78
2023-01-28T06:05:38.437Z,-0.79
2023-01-28T06:08:11.937Z,-0.81
2023-01-28T06:10:44.812Z,-0.82
2023-01-28T06:13:17.282Z,-0.85
2023-01-28T06:16:04.918Z,-0.87
2023-01-28T06:18:54.520Z,-0.83
2023-01-28T06:21:29.650Z,-0.83
2023-01-28T06:24:02.531Z,-0.86
2023-01-28T06:26:35.438Z,-0.87
2023-01-28T06:29:09.372Z,-0.87
2023-01-28T06:31:42.074Z,-0.87
2023-01-28T06:34:15.565Z,-0.87
2023-01-28T06:36:48.252Z,-0.84
2023-01-28T06:39:22.533Z,-0.87
2023-01-28T06:41:55.002Z,-0.90
2023-01-28T06:44:27.835Z,-0.91
2023-01-28T06:47:00.581Z,-0.90
2023-01-28T06:49:33.195Z,-0.90
2023-01-28T06:52:05.884Z,-0.91
2023-01-28T06:54:38.367Z,-0.92
2023-01-28T06:57:10.972Z,-0.96
2023-01-28T06:59:43.606Z,-0.97
2023-01-28T07:02:15.965Z,-1.03
2023-01-28T07:04:48.255Z,-1.01
2023-01-28T07:07:20.643Z,-0.98
2023-01-28T07:09:53.159Z,-0.99
2023-01-28T07:12:25.948Z,-1.03
2023-01-28T07:14:58.404Z,-1.06
2023-01-28T07:17:31.083Z,-1.13
2023-01-28T07:20:05.404Z,-1.05
2023-01-28T07:22:39.941Z,-1.08
2023-01-28T07:25:13.197Z,-1.11
2023-01-28T07:27:53.930Z,-1.12
2023-01-28T07:30:26.938Z,-1.11
2023-01-28T07:33:20.467Z,-1.15
2023-01-28T07:35:53.041Z,-1.15
2023-01-28T07:38:25.589Z,-1.26
2023-01-28T07:40:57.929Z,-1.27
2023-01-28T07:43:32.086Z,-1.29
2023-01-28T07:46:04.708Z,-1.33
2023-01-28T07:48:37.156Z,-1.32
2023-01-28T07:51:09.682Z,-1.30
2023-01-28T07:53:42.057Z,-1.29
2023-01-28T07:56:14.389Z,-1.28
2023-01-28T07:58:46.965Z,-1.26
2023-01-28T08:01:19.956Z,-1.24
2023-01-28T08:03:52.915Z,-1.21
2023-01-28T08:06:25.588Z,-1.21
2023-01-28T08:08:58.366Z,-1.20
2023-01-28T08:11:30.952Z,-1.20
2023-01-28T08:14:03.622Z,-1.23
2023-01-28T08:16:36.199Z,-1.34
2023-01-28T08:19:08.940Z,-1.39
2023-01-28T08:21:41.339Z,-1.44
2023-01-28T08:24:13.951Z,-1.50
2023-01-28T08:26:46.390Z,-1.55
2023-01-28T08:29:18.957Z,-1.56
2023-01-28T08:31:51.356Z,-1.52
2023-01-28T08:34:23.967Z,-1.50
2023-01-28T08:36:56.494Z,-1.44
2023-01-28T08:39:28.875Z,-1.47
2023-01-28T08:42:01.229Z,-1.52
2023-01-28T08:44:33.939Z,-1.61
2023-01-28T08:47:06.965Z,-1.63
2023-01-28T08:49:39.555Z,-1.65
2023-01-28T08:52:12.187Z,-1.66
2023-01-28T08:54:44.508Z,-1.67
2023-01-28T08:57:17.365Z,-1.61
2023-01-28T08:59:49.901Z,-1.50
2023-01-28T09:02:31.567Z,-1.42
2023-01-28T09:04:57.694Z,-1.34
2023-01-28T09:07:30.174Z,-1.33
2023-01-28T09:10:02.900Z,-1.28
2023-01-28T09:12:35.542Z,-1.27
2023-01-28T09:15:10.257Z,-1.22
2023-01-28T09:17:42.890Z,-1.22
2023-01-28T09:20:16.322Z,-1.21
2023-01-28T09:22:49.203Z,-1.19
2023-01-28T09:25:22.057Z,-1.23
2023-01-28T09:27:54.513Z,-1.21
2023-01-28T09:30:27.063Z,-1.21
2023-01-28T09:32:59.606Z,-1.27
2023-01-28T09:35:32.024Z,-1.30
2023-01-28T09:38:05.025Z,-1.28
2023-01-28T09:40:45.636Z,-1.29
2023-01-28T09:43:27.709Z,-1.27
2023-01-28T09:46:05.992Z,-1.19
2023-01-28T09:48:52.846Z,-1.13
2023-01-28T09:51:41.632Z,-1.05
2023-01-28T09:57:49.905Z,-0.97
2023-01-28T10:00:30.112Z,-0.95
2023-01-28T10:03:41.280Z,-0.95
2023-01-28T10:06:49.034Z,-0.95
2023-01-28T10:09:45.675Z,-0.96
2023-01-28T10:12:52.958Z,-0.99
2023-01-28T10:15:33.092Z,-0.91
2023-01-28T10:18:17.487Z,-0.88
2023-01-28T10:20:56.855Z,-0.81
2023-01-28T10:23:42.844Z,-0.78
2023-01-28T10:26:25.613Z,-0.61
2023-01-28T10:29:01.787Z,-0.46
2023-01-28T10:31:38.936Z,-0.35
2023-01-28T10:34:12.535Z,-0.29
2023-01-28T10:36:45.298Z,-0.24
2023-01-28T10:39:21.420Z,-0.19
2023-01-28T10:41:58.710Z,-0.09
2023-01-28T10:44:39.951Z,-0.01
2023-01-28T10:47:20.257Z,0.08
2023-01-28T10:49:55.501Z,0.12
2023-01-28T10:52:28.181Z,0.21
2023-01-28T10:55:05.732Z,0.41
2023-01-28T10:57:38.392Z,0.70
2023-01-28T11:00:24.193Z,1.01
2023-01-28T11:02:56.738Z,1.19
2023-01-28T11:05:30.875Z,1.31
2023-01-28T11:08:18.207Z,1.40
2023-01-28T11:10:50.667Z,1.44
2023-01-28T11:13:28.962Z,1.36
2023-01-28T11:16:15.870Z,1.30
2023-01-28T11:19:05.502Z,1.54
2023-01-28T11:21:38.818Z,2.11
2023-01-28T11:24:22.150Z,2.83
2023-01-28T11:26:56.635Z,3.54
2023-01-28T11:29:32.571Z,4.22
2023-01-28T11:32:04.923Z,4.71
2023-01-28T11:34:37.302Z,5.01
2023-01-28T11:37:16.818Z,5.22
2023-01-28T11:39:49.303Z,5.16
2023-01-28T11:42:23.154Z,4.96
2023-01-28T11:44:55.440Z,4.77
2023-01-28T11:47:38.559Z,4.83
2023-01-28T11:50:19.183Z,5.13
2023-01-28T11:53:22.164Z,5.56
2023-01-28T11:56:11.133Z,5.91
2023-01-28T11:59:16.829Z,6.07
2023-01-28T12:01:53.425Z,5.65
2023-01-28T12:04:51.454Z,5.05
2023-01-28T12:07:40.840Z,4.54
2023-01-28T12:10:23.626Z,4.25
2023-01-28T12:13:39.418Z,4.03
2023-01-28T12:16:25.953Z,3.79
2023-01-28T12:19:24.211Z,3.58
2023-01-28T12:22:07.732Z,3.36
2023-01-28T12:25:19.414Z,3.08
2023-01-28T12:28:05.441Z,2.91
2023-01-28T12:31:24.304Z,2.73
2023-01-28T12:34:37.975Z,2.61
2023-01-28T12:37:30.583Z,2.48
2023-01-28T12:40:19.737Z,2.29
2023-01-28T12:42:59.383Z,2.22
2023-01-28T12:45:42.354Z,2.15
2023-01-28T12:48:25.296Z,2.17
2023-01-28T12:51:27.170Z,2.11
2023-01-28T12:54:25.000Z,1.98
2023-01-28T12:56:57.527Z,1.85
2023-01-28T12:59:49.810Z,1.76
2023-01-28T13:02:33.157Z,1.66
2023-01-28T13:05:22.212Z,1.52
2023-01-28T13:08:13.416Z,1.46
2023-01-28T13:10:47.646Z,1.40
2023-01-28T16:23:09.408Z,0.13
2023-01-28T16:25:42.294Z,0.16
2023-01-28T16:28:20.294Z,0.19
2023-01-28T16:30:52.785Z,0.23
2023-01-28T16:33:25.954Z,0.23
2023-01-28T16:36:08.240Z,0.23
2023-01-28T16:38:34.320Z,0.23
2023-01-28T16:41:13.866Z,0.21
2023-01-28T16:43:46.404Z,0.22
2023-01-28T16:46:19.210Z,0.21
2023-01-28T16:48:52.370Z,0.20
2023-01-28T16:51:24.806Z,0.19
2023-01-28T16:53:58.045Z,0.22
2023-01-28T16:56:47.141Z,0.18
2023-01-28T16:59:05.440Z,0.18
2023-01-28T17:01:37.881Z,0.20
2023-01-28T17:04:12.568Z,0.26
2023-01-28T17:06:45.365Z,0.31
2023-01-28T17:09:18.432Z,0.36
2023-01-28T17:11:50.990Z,0.38
2023-01-28T17:14:24.293Z,0.40
2023-01-28T17:16:57.837Z,0.44
2023-01-28T17:19:31.448Z,0.46
2023-01-28T17:22:03.970Z,0.49
2023-01-28T17:24:36.820Z,0.53
2023-01-28T17:27:09.893Z,0.57
2023-01-28T17:29:42.371Z,0.59
2023-01-28T17:32:15.018Z,0.57
2023-01-28T17:34:49.501Z,0.59
2023-01-28T17:37:22.445Z,0.56
2023-01-28T17:39:54.961Z,0.53
2023-01-28T17:42:28.381Z,0.52
2023-01-28T17:45:02.658Z,0.50
2023-01-28T17:47:35.642Z,0.42
2023-01-28T17:50:08.470Z,0.35
2023-01-28T17:52:42.159Z,0.28
2023-01-28T17:55:15.974Z,0.27
2023-01-28T17:57:48.912Z,0.23
2023-01-28T18:00:23.287Z,0.20
2023-01-28T18:02:56.731Z,0.18
2023-01-28T18:05:29.143Z,0.15
2023-01-28T18:08:01.611Z,0.13
2023-01-28T18:10:34.212Z,0.11
2023-01-28T18:13:06.734Z,0.08
2023-01-28T18:15:40.423Z,0.06
2023-01-28T18:18:13.052Z,0.03
2023-01-28T18:20:45.654Z,0.03
2023-01-28T18:23:18.187Z,-0.01
2023-01-28T18:25:51.327Z,-0.04
2023-01-28T18:28:23.814Z,-0.07
2023-01-28T18:30:56.787Z,-0.08
2023-01-28T18:33:31.238Z,-0.07
2023-01-28T18:36:06.549Z,-0.07
2023-01-28T18:38:39.186Z,-0.07
2023-01-28T18:41:11.618Z,-0.07
2023-01-28T18:43:44.634Z,-0.06
2023-01-28T18:46:19.110Z,-0.01
2023-01-28T18:48:51.768Z,0.01
2023-01-28T18:51:31.201Z,0.04
2023-01-28T18:54:04.097Z,0.09
2023-01-28T18:56:36.728Z,0.13
2023-01-28T18:59:11.152Z,0.19
2023-01-28T19:01:44.049Z,0.25
2023-01-28T19:04:16.771Z,0.27
2023-01-28T19:06:49.451Z,0.31
2023-01-28T19:09:22.207Z,0.30
2023-01-28T19:11:54.710Z,0.30
2023-01-28T19:14:27.982Z,0.29
2023-01-28T19:17:00.548Z,0.35
2023-01-28T19:19:33.299Z,0.36
2023-01-28T19:22:05.833Z,0.40
2023-01-28T19:24:38.477Z,0.42
2023-01-28T19:27:10.963Z,0.46
2023-01-28T19:29:44.248Z,0.47
2023-01-28T19:32:16.859Z,0.48
2023-01-28T19:34:49.948Z,0.48
2023-01-28T19:37:23.651Z,0.50
2023-01-28T19:39:56.398Z,0.51
2023-01-28T19:42:28.675Z,0.50
2023-01-28T19:45:03.988Z,0.50
2023-01-28T19:47:35.918Z,0.51
2023-01-28T19:50:10.098Z,0.48
2023-01-28T19:52:43.479Z,0.46
2023-01-28T19:55:16.170Z,0.46
2023-01-28T19:57:51.008Z,0.43
2023-01-28T20:00:23.601Z,0.38
2023-01-28T20:02:55.949Z,0.36
2023-01-28T20:05:28.314Z,0.30
2023-01-28T20:08:00.936Z,0.27
2023-01-28T20:10:34.209Z,0.21
2023-01-28T20:13:08.126Z,0.17
2023-01-28T20:15:41.264Z,0.16
2023-01-28T20:18:13.596Z,0.17
2023-01-28T20:20:55.671Z,0.15
2023-01-28T20:23:28.555Z,0.13
2023-01-28T20:26:04.027Z,0.11
2023-01-28T20:28:36.784Z,0.10
2023-01-28T20:31:10.665Z,0.07
2023-01-28T20:33:43.017Z,0.00
2023-01-28T20:36:16.318Z,-0.07
2023-01-28T20:38:50.358Z,-0.12
2023-01-28T20:41:24.994Z,-0.15
2023-01-28T20:43:57.301Z,-0.11
2023-01-28T20:46:33.372Z,-0.12
2023-01-28T20:49:10.259Z,-0.21
2023-01-28T20:51:44.397Z,-0.26
2023-01-28T20:54:18.459Z,-0.32
2023-01-28T20:56:51.634Z,-0.35
2023-01-28T20:59:24.307Z,-0.40
2023-01-28T21:01:56.762Z,-0.43
2023-01-28T21:04:29.827Z,-0.49
2023-01-28T21:07:02.936Z,-0.51
2023-01-28T21:09:36.399Z,-0.56
2023-01-28T21:12:09.617Z,-0.59
2023-01-28T21:14:42.643Z,-0.62
2023-01-28T21:17:15.659Z,-0.62
2023-01-28T21:19:48.626Z,-0.62
2023-01-28T21:22:21.249Z,-0.58
2023-01-28T21:24:54.216Z,-0.59
2023-01-28T21:27:26.659Z,-0.60
2023-01-28T21:29:59.106Z,-0.62
2023-01-28T21:32:31.969Z,-0.63
2023-01-28T21:35:04.668Z,-0.68
2023-01-28T21:37:39.142Z,-0.73
2023-01-28T21:40:14.343Z,-0.75
2023-01-28T21:42:47.875Z,-0.76
2023-01-28T21:45:20.597Z,-0.80
2023-01-28T21:47:54.419Z,-0.86
2023-01-28T21:50:27.430Z,-0.91
2023-01-28T21:52:59.821Z,-0.90
2023-01-28T21:55:32.244Z,-0.88
2023-01-28T21:58:06.620Z,-0.87
2023-01-28T22:00:38.532Z,-0.89
